Text analysis for Dhairya Marwaha (dhairyamarwaha)

Return to profile of Dhairya Marwaha (dhairyamarwaha)

View texts not yet raced by Dhairya Marwaha (dhairyamarwaha)

Sorted by best race

Rank Text Best WPM Overall Difficulty Relative Speed Text Length Races Average WPM Last race
1. If I am to serve both as a waitress and the butt of jokes, I... 72.71 1.0568 0.1945 92 1 72.71 2023-06-05
2. There is a door at the end of a silent corridor. And it's ha... 69.21 0.9858 0.2053 166 1 69.21 2023-06-05
3. I suppose I could collect my books and get on back to school... 66.34 1.0660 0.0757 185 1 66.34 2023-06-05
4. There is no way that this winter is ever going to end as lon... 65.28 1.0372 0.0862 183 1 65.28 2023-06-06
5. Don't know much about history. Don't know much biology. Don'... 63.49 1.0199 0.0727 239 1 63.49 2023-06-05
6. Words bend our thinking to infinite paths of self-delusion, ... 62.84 1.0502 0.0312 254 1 62.84 2023-06-06
7. Outside in the hall, he leant against the wall, breathing de... 60.43 1.0204 0.0196 311 1 60.43 2023-06-06
8. She was at that modulating point between indifference and lo... 60.17 1.1130 -0.0775 231 1 60.17 2023-06-05
9. I can always tell when you're lying. I also know that you ca... 59.83 1.0147 0.0149 249 1 59.83 2023-06-06
10. Your beauty is beyond compare, with flaming locks of auburn ... 59.35 1.0081 0.0133 222 1 59.35 2023-06-05
11. People say these things because everyone holds fond memories... 59.06 1.0218 -0.0054 290 1 59.06 2023-06-05
12. A good person? Well... I don't really like that term. Becaus... 58.54 1.0149 -0.0075 184 1 58.54 2023-06-05
13. There are too many things we do not wish to know about ourse... 57.59 1.0107 -0.0196 166 1 57.59 2023-06-05
14. Well, a scavenger hunt is exactly like a treasure hunt, exce... 57.59 1.0035 -0.0124 186 1 57.59 2023-06-05
15. In order to face down the danger that is stalking us and mov... 56.89 1.0167 -0.0377 378 1 56.89 2023-06-05
16. There was once a fish that lived in a pond. One day, he met ... 56.72 0.9993 -0.0232 345 1 56.72 2023-06-05
17. Writing is hard work. A clear sentence is no accident. Very ... 56.47 1.0323 -0.0605 224 1 56.47 2023-06-05
18. The sooner your kids appreciate the value of work, the more ... 55.83 1.0669 -0.1061 286 1 55.83 2023-06-05
19. I must nevertheless point out that our profession very close... 55.55 0.9461 0.0099 276 1 55.55 2023-06-06
20. We've known each other for many years but this is the first ... 55.55 1.0352 -0.0792 341 1 55.55 2023-06-05
21. As you rise, the number of critics will also rise. Humans se... 55.43 0.9500 0.0039 143 1 55.43 2023-06-05
22. If every person in this room made it a rule that wherever yo... 55.25 1.0488 -0.0980 354 1 55.25 2023-06-05
23. Darling, I am growing old, silver threads among the gold. Sh... 54.50 1.0066 -0.0687 225 1 54.50 2023-06-05
24. For instance, there is no light without darkness - and this ... 54.20 1.0998 -0.1671 223 1 54.20 2023-06-05
25. Jealousy - at least as far as he understood it from his drea... 53.47 1.0121 -0.0919 526 1 53.47 2023-06-05
26. I know you feel where I'm coming from, regardless of the thi... 51.91 1.0347 -0.1414 333 1 51.91 2023-06-05
27. O clear intelligence, force beyond all measure! Gentlemen, I... 50.66 0.9976 -0.1258 174 1 50.66 2023-06-05
28. With no map to navigate one's life, some of us have stood st... 50.60 1.0169 -0.1461 346 1 50.60 2023-06-05
29. I have never done a day's work in my life - honest or dishon... 49.67 0.9581 -0.1033 196 1 49.67 2023-06-06